sensor_id;sensor_type;location;lat;lon;timestamp;pressure;altitude;pressure_sealevel;temperature;humidity
73338;BME280;61575;49.908;35.556;2023-07-20T00:00:02;98693.56;;;17.43;75.03
73338;BME280;61575;49.908;35.556;2023-07-20T00:03:13;98690.63;;;17.44;75.21
73338;BME280;61575;49.908;35.556;2023-07-20T00:06:18;98691.09;;;17.41;74.31
73338;BME280;61575;49.908;35.556;2023-07-20T00:09:21;98708.66;;;17.39;74.68
73338;BME280;61575;49.908;35.556;2023-07-20T00:12:23;98694.38;;;17.31;74.65
73338;BME280;61575;49.908;35.556;2023-07-20T00:15:24;98698.84;;;17.26;74.50
73338;BME280;61575;49.908;35.556;2023-07-20T00:18:26;98705.19;;;17.20;74.98
73338;BME280;61575;49.908;35.556;2023-07-20T00:21:28;98694.91;;;17.10;75.21
73338;BME280;61575;49.908;35.556;2023-07-20T00:24:30;98706.78;;;16.97;75.48
73338;BME280;61575;49.908;35.556;2023-07-20T00:27:32;98703.72;;;16.94;75.58
73338;BME280;61575;49.908;35.556;2023-07-20T00:30:34;98706.25;;;16.77;75.95
73338;BME280;61575;49.908;35.556;2023-07-20T00:33:36;98717.63;;;16.67;76.11
73338;BME280;61575;49.908;35.556;2023-07-20T00:36:39;98723.97;;;16.61;76.02
73338;BME280;61575;49.908;35.556;2023-07-20T00:39:42;98722.16;;;16.55;75.69
73338;BME280;61575;49.908;35.556;2023-07-20T00:42:43;98717.63;;;16.49;76.09
73338;BME280;61575;49.908;35.556;2023-07-20T00:45:45;98709.13;;;16.46;76.14
73338;BME280;61575;49.908;35.556;2023-07-20T00:48:47;98710.88;;;16.40;76.20
73338;BME280;61575;49.908;35.556;2023-07-20T00:51:49;98714.25;;;16.35;76.46
73338;BME280;61575;49.908;35.556;2023-07-20T00:54:51;98719.31;;;16.32;76.05
73338;BME280;61575;49.908;35.556;2023-07-20T00:57:53;98720.19;;;16.26;76.57
73338;BME280;61575;49.908;35.556;2023-07-20T01:00:55;98720.88;;;16.21;76.63
73338;BME280;61575;49.908;35.556;2023-07-20T01:03:57;98724.88;;;16.19;76.55
73338;BME280;61575;49.908;35.556;2023-07-20T01:07:03;98726.97;;;16.17;76.41
73338;BME280;61575;49.908;35.556;2023-07-20T01:10:22;98713.06;;;16.13;77.07
73338;BME280;61575;49.908;35.556;2023-07-20T01:13:27;98719.53;;;16.12;76.72
73338;BME280;61575;49.908;35.556;2023-07-20T01:16:29;98716.44;;;16.09;76.63
73338;BME280;61575;49.908;35.556;2023-07-20T01:19:31;98708.53;;;16.07;76.77
73338;BME280;61575;49.908;35.556;2023-07-20T01:29:11;98713.88;;;15.95;77.06
73338;BME280;61575;49.908;35.556;2023-07-20T01:32:18;98718.06;;;15.91;76.97
73338;BME280;61575;49.908;35.556;2023-07-20T01:35:20;98718.91;;;15.92;76.65
73338;BME280;61575;49.908;35.556;2023-07-20T01:38:25;98723.56;;;15.85;77.00
73338;BME280;61575;49.908;35.556;2023-07-20T01:41:27;98722.72;;;15.84;76.69
73338;BME280;61575;49.908;35.556;2023-07-20T01:44:29;98722.56;;;15.79;76.81
73338;BME280;61575;49.908;35.556;2023-07-20T01:47:31;98725.50;;;15.78;76.93
73338;BME280;61575;49.908;35.556;2023-07-20T01:50:34;98733.47;;;15.72;76.94
73338;BME280;61575;49.908;35.556;2023-07-20T01:53:36;98735.41;;;15.65;76.92
73338;BME280;61575;49.908;35.556;2023-07-20T01:56:38;98735.84;;;15.62;77.34
73338;BME280;61575;49.908;35.556;2023-07-20T01:59:40;98730.03;;;15.59;77.64
73338;BME280;61575;49.908;35.556;2023-07-20T02:02:41;98732.97;;;15.57;77.42
73338;BME280;61575;49.908;35.556;2023-07-20T02:05:44;98741.72;;;15.53;77.58
73338;BME280;61575;49.908;35.556;2023-07-20T02:08:46;98733.88;;;15.45;77.96
73338;BME280;61575;49.908;35.556;2023-07-20T02:11:48;98742.81;;;15.45;78.21
73338;BME280;61575;49.908;35.556;2023-07-20T02:14:50;98748.91;;;15.40;78.45
73338;BME280;61575;49.908;35.556;2023-07-20T02:17:52;98752.44;;;15.41;79.01
73338;BME280;61575;49.908;35.556;2023-07-20T02:20:54;98753.44;;;15.47;79.25
73338;BME280;61575;49.908;35.556;2023-07-20T02:23:56;98747.13;;;15.53;80.18
73338;BME280;61575;49.908;35.556;2023-07-20T02:26:58;98751.47;;;15.60;79.92
73338;BME280;61575;49.908;35.556;2023-07-20T02:30:00;98759.53;;;15.67;80.10
73338;BME280;61575;49.908;35.556;2023-07-20T02:33:02;98758.88;;;15.71;80.00
73338;BME280;61575;49.908;35.556;2023-07-20T02:36:04;98757.75;;;15.79;79.77
73338;BME280;61575;49.908;35.556;2023-07-20T02:39:06;98758.97;;;15.83;79.61
73338;BME280;61575;49.908;35.556;2023-07-20T02:42:08;98759.97;;;15.89;79.95
73338;BME280;61575;49.908;35.556;2023-07-20T02:45:10;98757.25;;;15.89;79.82
73338;BME280;61575;49.908;35.556;2023-07-20T02:48:12;98757.88;;;15.91;79.73
73338;BME280;61575;49.908;35.556;2023-07-20T02:51:14;98755.75;;;15.93;79.76
73338;BME280;61575;49.908;35.556;2023-07-20T02:54:16;98763.44;;;15.96;79.97
73338;BME280;61575;49.908;35.556;2023-07-20T02:57:18;98763.38;;;16.02;79.49
73338;BME280;61575;49.908;35.556;2023-07-20T03:00:21;98755.41;;;16.07;80.07
73338;BME280;61575;49.908;35.556;2023-07-20T03:03:33;98759.31;;;16.12;80.02
73338;BME280;61575;49.908;35.556;2023-07-20T03:06:40;98750.31;;;16.18;80.22
73338;BME280;61575;49.908;35.556;2023-07-20T03:09:42;98750.22;;;16.24;79.59
73338;BME280;61575;49.908;35.556;2023-07-20T03:12:45;98756.19;;;16.33;79.85
73338;BME280;61575;49.908;35.556;2023-07-20T03:15:46;98748.81;;;16.40;79.57
73338;BME280;61575;49.908;35.556;2023-07-20T03:18:48;98755.34;;;16.51;79.59
73338;BME280;61575;49.908;35.556;2023-07-20T03:21:50;98752.97;;;16.61;79.44
73338;BME280;61575;49.908;35.556;2023-07-20T03:24:53;98765.97;;;16.70;79.47
73338;BME280;61575;49.908;35.556;2023-07-20T03:27:54;98765.91;;;16.77;79.80
73338;BME280;61575;49.908;35.556;2023-07-20T03:30:57;98776.19;;;16.87;79.04
73338;BME280;61575;49.908;35.556;2023-07-20T03:34:00;98777.31;;;16.97;78.78
73338;BME280;61575;49.908;35.556;2023-07-20T03:37:02;98771.34;;;17.07;78.48
73338;BME280;61575;49.908;35.556;2023-07-20T03:40:06;98767.84;;;17.18;79.17
73338;BME280;61575;49.908;35.556;2023-07-20T03:43:09;98771.41;;;17.30;79.20
73338;BME280;61575;49.908;35.556;2023-07-20T03:46:10;98777.94;;;17.41;78.42
73338;BME280;61575;49.908;35.556;2023-07-20T03:49:13;98780.59;;;17.59;77.54
73338;BME280;61575;49.908;35.556;2023-07-20T03:52:14;98783.84;;;17.80;76.09
73338;BME280;61575;49.908;35.556;2023-07-20T03:55:16;98781.72;;;18.05;73.89
73338;BME280;61575;49.908;35.556;2023-07-20T03:58:18;98789.16;;;18.33;73.00
73338;BME280;61575;49.908;35.556;2023-07-20T04:01:21;98791.97;;;18.61;73.83
73338;BME280;61575;49.908;35.556;2023-07-20T04:04:23;98795.56;;;18.90;70.94
73338;BME280;61575;49.908;35.556;2023-07-20T04:07:25;98797.25;;;19.20;70.57
73338;BME280;61575;49.908;35.556;2023-07-20T04:10:27;98793.31;;;19.56;66.74
73338;BME280;61575;49.908;35.556;2023-07-20T04:13:29;98789.75;;;19.89;63.71
73338;BME280;61575;49.908;35.556;2023-07-20T04:16:34;98800.31;;;20.19;60.25
73338;BME280;61575;49.908;35.556;2023-07-20T04:19:36;98794.50;;;20.49;60.59
73338;BME280;61575;49.908;35.556;2023-07-20T04:22:38;98796.72;;;20.74;60.37
73338;BME280;61575;49.908;35.556;2023-07-20T04:25:43;98791.72;;;20.87;58.35
73338;BME280;61575;49.908;35.556;2023-07-20T04:28:47;98803.22;;;21.11;60.64
73338;BME280;61575;49.908;35.556;2023-07-20T04:32:00;98801.91;;;21.41;58.93
73338;BME280;61575;49.908;35.556;2023-07-20T04:35:05;98810.81;;;21.58;55.81
73338;BME280;61575;49.908;35.556;2023-07-20T04:38:07;98802.78;;;21.73;56.71
73338;BME280;61575;49.908;35.556;2023-07-20T04:41:10;98802.09;;;21.88;57.11
73338;BME280;61575;49.908;35.556;2023-07-20T04:44:16;98806.97;;;22.18;58.07
73338;BME280;61575;49.908;35.556;2023-07-20T04:47:18;98811.75;;;22.38;54.43
73338;BME280;61575;49.908;35.556;2023-07-20T04:50:21;98808.88;;;22.55;51.76
73338;BME280;61575;49.908;35.556;2023-07-20T04:53:24;98807.06;;;22.70;49.76
73338;BME280;61575;49.908;35.556;2023-07-20T04:56:26;98808.47;;;22.83;50.59
73338;BME280;61575;49.908;35.556;2023-07-20T04:59:30;98806.91;;;23.02;49.76
73338;BME280;61575;49.908;35.556;2023-07-20T05:02:32;98813.34;;;23.33;51.20
73338;BME280;61575;49.908;35.556;2023-07-20T05:05:35;98815.28;;;23.48;49.43
73338;BME280;61575;49.908;35.556;2023-07-20T05:08:37;98818.34;;;23.67;49.04
73338;BME280;61575;49.908;35.556;2023-07-20T05:11:38;98813.16;;;23.81;47.30
73338;BME280;61575;49.908;35.556;2023-07-20T05:14:40;98812.63;;;23.89;45.48
73338;BME280;61575;49.908;35.556;2023-07-20T05:17:43;98815.38;;;23.99;44.50
73338;BME280;61575;49.908;35.556;2023-07-20T05:20:49;98804.13;;;24.16;45.75
73338;BME280;61575;49.908;35.556;2023-07-20T05:23:51;98806.00;;;24.35;45.62
73338;BME280;61575;49.908;35.556;2023-07-20T05:26:52;98799.94;;;24.59;44.62
73338;BME280;61575;49.908;35.556;2023-07-20T05:29:55;98788.91;;;24.79;44.38
73338;BME280;61575;49.908;35.556;2023-07-20T05:32:57;98794.03;;;24.91;42.21
73338;BME280;61575;49.908;35.556;2023-07-20T05:35:59;98798.66;;;25.00;42.71
73338;BME280;61575;49.908;35.556;2023-07-20T05:39:01;98788.69;;;25.25;42.36
73338;BME280;61575;49.908;35.556;2023-07-20T05:42:03;98793.53;;;25.43;41.63
73338;BME280;61575;49.908;35.556;2023-07-20T05:45:05;98788.81;;;25.49;41.92
73338;BME280;61575;49.908;35.556;2023-07-20T05:48:07;98791.63;;;25.78;40.41
73338;BME280;61575;49.908;35.556;2023-07-20T05:51:11;98782.50;;;25.87;35.78
73338;BME280;61575;49.908;35.556;2023-07-20T05:54:13;98790.91;;;26.01;33.06
73338;BME280;61575;49.908;35.556;2023-07-20T05:57:15;98783.78;;;26.29;36.69
73338;BME280;61575;49.908;35.556;2023-07-20T06:00:17;98790.78;;;26.45;35.83
73338;BME280;61575;49.908;35.556;2023-07-20T06:03:20;98777.91;;;26.64;37.16
73338;BME280;61575;49.908;35.556;2023-07-20T06:06:24;98772.47;;;26.83;37.41
73338;BME280;61575;49.908;35.556;2023-07-20T06:09:27;98776.97;;;26.98;36.70
73338;BME280;61575;49.908;35.556;2023-07-20T06:12:29;98782.94;;;27.05;36.49
73338;BME280;61575;49.908;35.556;2023-07-20T06:15:31;98785.06;;;27.13;36.24
73338;BME280;61575;49.908;35.556;2023-07-20T06:18:33;98776.94;;;27.22;35.49
73338;BME280;61575;49.908;35.556;2023-07-20T06:21:35;98779.72;;;27.41;35.41
73338;BME280;61575;49.908;35.556;2023-07-20T06:24:37;98777.53;;;27.56;35.31
73338;BME280;61575;49.908;35.556;2023-07-20T06:27:39;98774.78;;;27.75;34.64
73338;BME280;61575;49.908;35.556;2023-07-20T06:30:41;98778.41;;;27.89;34.48
73338;BME280;61575;49.908;35.556;2023-07-20T06:33:42;98776.47;;;27.90;34.34
73338;BME280;61575;49.908;35.556;2023-07-20T06:36:44;98768.56;;;28.16;35.89
73338;BME280;61575;49.908;35.556;2023-07-20T06:39:46;98773.66;;;28.41;32.42
73338;BME280;61575;49.908;35.556;2023-07-20T06:42:51;98769.34;;;28.35;32.12
73338;BME280;61575;49.908;35.556;2023-07-20T06:45:57;98762.13;;;28.67;33.31
73338;BME280;61575;49.908;35.556;2023-07-20T06:48:59;98764.56;;;28.68;35.00
73338;BME280;61575;49.908;35.556;2023-07-20T06:52:04;98759.34;;;28.80;34.52
73338;BME280;61575;49.908;35.556;2023-07-20T06:55:06;98764.78;;;28.99;33.47
73338;BME280;61575;49.908;35.556;2023-07-20T06:58:08;98752.50;;;29.05;33.59
73338;BME280;61575;49.908;35.556;2023-07-20T07:01:10;98764.06;;;28.94;31.16
73338;BME280;61575;49.908;35.556;2023-07-20T07:04:12;98757.63;;;28.98;32.30
73338;BME280;61575;49.908;35.556;2023-07-20T07:07:14;98757.09;;;29.10;31.48
73338;BME280;61575;49.908;35.556;2023-07-20T07:10:26;98753.63;;;28.91;31.70
73338;BME280;61575;49.908;35.556;2023-07-20T07:13:28;98746.94;;;29.19;30.34
73338;BME280;61575;49.908;35.556;2023-07-20T07:16:30;98739.66;;;29.23;30.83
73338;BME280;61575;49.908;35.556;2023-07-20T07:19:32;98748.09;;;29.40;31.37
73338;BME280;61575;49.908;35.556;2023-07-20T07:22:34;98739.69;;;29.45;31.05
73338;BME280;61575;49.908;35.556;2023-07-20T07:25:36;98739.84;;;29.63;31.25
73338;BME280;61575;49.908;35.556;2023-07-20T07:28:38;98737.91;;;29.86;30.87
73338;BME280;61575;49.908;35.556;2023-07-20T07:31:40;98743.00;;;29.92;30.67
73338;BME280;61575;49.908;35.556;2023-07-20T07:34:43;98736.88;;;29.81;30.72
73338;BME280;61575;49.908;35.556;2023-07-20T07:37:45;98736.56;;;29.83;30.96
73338;BME280;61575;49.908;35.556;2023-07-20T07:41:07;98743.31;;;29.91;31.01
73338;BME280;61575;49.908;35.556;2023-07-20T07:44:08;98745.94;;;29.96;30.16
73338;BME280;61575;49.908;35.556;2023-07-20T07:47:10;98744.09;;;30.13;31.75
73338;BME280;61575;49.908;35.556;2023-07-20T07:50:12;98748.59;;;30.32;32.42
73338;BME280;61575;49.908;35.556;2023-07-20T07:53:14;98748.63;;;30.40;31.48
73338;BME280;61575;49.908;35.556;2023-07-20T07:56:16;98753.75;;;30.56;31.29
73338;BME280;61575;49.908;35.556;2023-07-20T07:59:18;98743.97;;;30.58;30.61
73338;BME280;61575;49.908;35.556;2023-07-20T08:02:20;98752.66;;;30.65;29.42
73338;BME280;61575;49.908;35.556;2023-07-20T08:05:22;98747.31;;;30.69;29.43
73338;BME280;61575;49.908;35.556;2023-07-20T08:08:24;98745.00;;;30.62;27.88
73338;BME280;61575;49.908;35.556;2023-07-20T08:11:26;98754.81;;;30.68;28.12
73338;BME280;61575;49.908;35.556;2023-07-20T08:14:28;98765.75;;;30.73;27.05
73338;BME280;61575;49.908;35.556;2023-07-20T08:17:30;98754.81;;;30.37;26.52
73338;BME280;61575;49.908;35.556;2023-07-20T08:20:32;98759.38;;;30.42;26.78
73338;BME280;61575;49.908;35.556;2023-07-20T08:23:37;98768.41;;;29.94;27.47
73338;BME280;61575;49.908;35.556;2023-07-20T08:26:39;98773.00;;;29.76;27.43
73338;BME280;61575;49.908;35.556;2023-07-20T08:29:41;98773.13;;;29.94;27.67
73338;BME280;61575;49.908;35.556;2023-07-20T08:32:42;98769.41;;;29.98;28.36
73338;BME280;61575;49.908;35.556;2023-07-20T08:35:45;98779.28;;;30.13;27.86
73338;BME280;61575;49.908;35.556;2023-07-20T08:38:47;98768.41;;;30.56;28.82
73338;BME280;61575;49.908;35.556;2023-07-20T08:41:49;98770.13;;;30.35;27.34
73338;BME280;61575;49.908;35.556;2023-07-20T08:44:52;98763.34;;;30.50;26.71
73338;BME280;61575;49.908;35.556;2023-07-20T08:47:55;98764.84;;;30.56;28.16
73338;BME280;61575;49.908;35.556;2023-07-20T08:50:58;98769.44;;;30.60;26.63
73338;BME280;61575;49.908;35.556;2023-07-20T08:54:02;98761.91;;;31.00;28.96
73338;BME280;61575;49.908;35.556;2023-07-20T08:57:06;98765.72;;;31.13;28.92
73338;BME280;61575;49.908;35.556;2023-07-20T09:00:09;98765.22;;;31.20;28.19
73338;BME280;61575;49.908;35.556;2023-07-20T09:03:14;98763.78;;;31.31;30.63
73338;BME280;61575;49.908;35.556;2023-07-20T09:06:16;98759.03;;;31.14;27.52
73338;BME280;61575;49.908;35.556;2023-07-20T09:09:19;98769.06;;;30.93;27.42
73338;BME280;61575;49.908;35.556;2023-07-20T09:12:21;98757.25;;;31.18;28.28
73338;BME280;61575;49.908;35.556;2023-07-20T09:15:29;98761.66;;;31.36;28.14
73338;BME280;61575;49.908;35.556;2023-07-20T09:18:32;98758.81;;;31.10;28.04
73338;BME280;61575;49.908;35.556;2023-07-20T09:21:36;98765.09;;;30.06;27.31
73338;BME280;61575;49.908;35.556;2023-07-20T09:24:38;98756.13;;;30.71;28.50
73338;BME280;61575;49.908;35.556;2023-07-20T09:27:41;98763.03;;;30.99;29.10
73338;BME280;61575;49.908;35.556;2023-07-20T09:30:44;98755.78;;;31.38;29.02
73338;BME280;61575;49.908;35.556;2023-07-20T09:33:54;98751.03;;;31.21;27.91
73338;BME280;61575;49.908;35.556;2023-07-20T09:36:59;98755.44;;;31.14;27.21
73338;BME280;61575;49.908;35.556;2023-07-20T09:40:03;98754.63;;;31.30;28.98
73338;BME280;61575;49.908;35.556;2023-07-20T09:43:10;98751.19;;;30.59;26.65
73338;BME280;61575;49.908;35.556;2023-07-20T09:46:15;98748.63;;;30.71;26.42
73338;BME280;61575;49.908;35.556;2023-07-20T09:49:39;98753.72;;;30.95;26.85
73338;BME280;61575;49.908;35.556;2023-07-20T09:52:45;98742.16;;;31.02;28.47
73338;BME280;61575;49.908;35.556;2023-07-20T09:55:51;98745.84;;;31.46;28.04
73338;BME280;61575;49.908;35.556;2023-07-20T09:58:53;98740.78;;;31.56;27.05
73338;BME280;61575;49.908;35.556;2023-07-20T10:01:57;98743.53;;;31.48;27.13
73338;BME280;61575;49.908;35.556;2023-07-20T10:05:01;98742.56;;;31.61;27.13
73338;BME280;61575;49.908;35.556;2023-07-20T10:08:03;98749.56;;;31.24;27.49
73338;BME280;61575;49.908;35.556;2023-07-20T10:11:11;98751.06;;;31.56;27.39
73338;BME280;61575;49.908;35.556;2023-07-20T10:14:15;98745.34;;;31.35;27.17
73338;BME280;61575;49.908;35.556;2023-07-20T10:17:18;98755.13;;;31.58;26.75
73338;BME280;61575;49.908;35.556;2023-07-20T10:20:20;98739.97;;;31.56;28.49
73338;BME280;61575;49.908;35.556;2023-07-20T10:23:23;98743.38;;;31.87;26.91
73338;BME280;61575;49.908;35.556;2023-07-20T10:26:25;98733.72;;;32.02;28.42
73338;BME280;61575;49.908;35.556;2023-07-20T10:29:28;98732.28;;;31.79;28.48
73338;BME280;61575;49.908;35.556;2023-07-20T10:32:31;98728.84;;;31.90;26.88
73338;BME280;61575;49.908;35.556;2023-07-20T10:42:02;98716.91;;;31.98;27.37
73338;BME280;61575;49.908;35.556;2023-07-20T10:45:05;98705.69;;;31.69;27.24
73338;BME280;61575;49.908;35.556;2023-07-20T10:48:15;98697.63;;;31.93;28.83
73338;BME280;61575;49.908;35.556;2023-07-20T10:51:20;98705.59;;;32.12;27.18
73338;BME280;61575;49.908;35.556;2023-07-20T10:57:30;98699.28;;;32.41;28.40
73338;BME280;61575;49.908;35.556;2023-07-20T11:00:33;98691.19;;;32.57;27.21
73338;BME280;61575;49.908;35.556;2023-07-20T11:03:36;98688.91;;;32.21;28.61
73338;BME280;61575;49.908;35.556;2023-07-20T11:06:43;98688.09;;;32.20;27.18
73338;BME280;61575;49.908;35.556;2023-07-20T11:09:45;98687.94;;;32.08;26.63
73338;BME280;61575;49.908;35.556;2023-07-20T11:16:11;98683.69;;;32.11;28.55
73338;BME280;61575;49.908;35.556;2023-07-20T11:19:19;98678.91;;;31.56;28.20
73338;BME280;61575;49.908;35.556;2023-07-20T11:22:24;98679.66;;;31.91;27.30
73338;BME280;61575;49.908;35.556;2023-07-20T11:25:26;98675.84;;;32.21;30.42
73338;BME280;61575;49.908;35.556;2023-07-20T11:28:37;98683.38;;;32.50;27.17
73338;BME280;61575;49.908;35.556;2023-07-20T11:31:39;98675.72;;;32.47;27.63
73338;BME280;61575;49.908;35.556;2023-07-20T11:34:41;98667.75;;;32.37;27.39
73338;BME280;61575;49.908;35.556;2023-07-20T11:37:48;98660.97;;;32.09;27.36
73338;BME280;61575;49.908;35.556;2023-07-20T11:40:49;98677.06;;;32.41;28.09
73338;BME280;61575;49.908;35.556;2023-07-20T11:43:51;98660.47;;;32.53;26.75
73338;BME280;61575;49.908;35.556;2023-07-20T11:47:03;98664.63;;;32.68;27.26
73338;BME280;61575;49.908;35.556;2023-07-20T11:50:06;98662.53;;;32.35;28.23
73338;BME280;61575;49.908;35.556;2023-07-20T11:53:08;98664.22;;;32.57;29.76
73338;BME280;61575;49.908;35.556;2023-07-20T11:56:10;98661.91;;;32.59;26.97
73338;BME280;61575;49.908;35.556;2023-07-20T11:59:12;98664.56;;;32.85;29.46
73338;BME280;61575;49.908;35.556;2023-07-20T12:02:14;98657.09;;;32.98;28.98
73338;BME280;61575;49.908;35.556;2023-07-20T12:05:15;98649.13;;;32.67;27.51
73338;BME280;61575;49.908;35.556;2023-07-20T12:08:17;98653.97;;;32.49;29.01
73338;BME280;61575;49.908;35.556;2023-07-20T12:11:32;98646.34;;;32.37;27.20
73338;BME280;61575;49.908;35.556;2023-07-20T12:14:34;98650.69;;;32.09;28.89
73338;BME280;61575;49.908;35.556;2023-07-20T12:17:35;98648.59;;;31.97;27.13
73338;BME280;61575;49.908;35.556;2023-07-20T12:20:43;98642.25;;;31.97;26.69
73338;BME280;61575;49.908;35.556;2023-07-20T12:23:45;98636.13;;;32.12;27.53
73338;BME280;61575;49.908;35.556;2023-07-20T12:26:47;98643.50;;;32.08;24.91
73338;BME280;61575;49.908;35.556;2023-07-20T12:29:49;98641.78;;;32.33;26.46
73338;BME280;61575;49.908;35.556;2023-07-20T12:32:50;98637.63;;;32.48;25.68
73338;BME280;61575;49.908;35.556;2023-07-20T12:35:52;98635.25;;;32.29;24.48
73338;BME280;61575;49.908;35.556;2023-07-20T12:38:57;98634.94;;;32.60;26.10
73338;BME280;61575;49.908;35.556;2023-07-20T12:42:00;98627.78;;;32.80;28.25
73338;BME280;61575;49.908;35.556;2023-07-20T12:45:01;98624.59;;;32.90;27.87
73338;BME280;61575;49.908;35.556;2023-07-20T12:48:03;98628.59;;;33.01;28.41
73338;BME280;61575;49.908;35.556;2023-07-20T12:51:05;98624.94;;;33.09;26.83
73338;BME280;61575;49.908;35.556;2023-07-20T12:54:07;98619.16;;;33.14;27.11
73338;BME280;61575;49.908;35.556;2023-07-20T12:57:09;98615.56;;;33.14;28.75
73338;BME280;61575;49.908;35.556;2023-07-20T13:00:14;98614.63;;;33.10;26.07
73338;BME280;61575;49.908;35.556;2023-07-20T13:03:16;98616.13;;;33.07;26.20
73338;BME280;61575;49.908;35.556;2023-07-20T13:06:23;98605.34;;;32.85;24.23
73338;BME280;61575;49.908;35.556;2023-07-20T13:09:28;98606.22;;;32.77;26.06
73338;BME280;61575;49.908;35.556;2023-07-20T13:12:30;98598.34;;;32.79;28.13
73338;BME280;61575;49.908;35.556;2023-07-20T13:15:40;98595.91;;;32.77;27.59
73338;BME280;61575;49.908;35.556;2023-07-20T13:18:42;98596.97;;;32.64;25.69
73338;BME280;61575;49.908;35.556;2023-07-20T13:21:43;98605.50;;;32.59;27.70
73338;BME280;61575;49.908;35.556;2023-07-20T13:24:45;98584.94;;;32.51;27.62
73338;BME280;61575;49.908;35.556;2023-07-20T13:27:50;98585.44;;;32.24;26.96
73338;BME280;61575;49.908;35.556;2023-07-20T13:30:52;98583.44;;;32.33;25.99
73338;BME280;61575;49.908;35.556;2023-07-20T13:33:55;98581.28;;;32.38;28.32
73338;BME280;61575;49.908;35.556;2023-07-20T13:37:01;98586.59;;;32.23;25.56
73338;BME280;61575;49.908;35.556;2023-07-20T13:40:03;98578.72;;;32.25;27.66
73338;BME280;61575;49.908;35.556;2023-07-20T13:43:08;98572.25;;;32.12;26.61
73338;BME280;61575;49.908;35.556;2023-07-20T13:46:09;98558.50;;;31.78;26.20
73338;BME280;61575;49.908;35.556;2023-07-20T13:49:17;98564.69;;;31.83;26.93
73338;BME280;61575;49.908;35.556;2023-07-20T13:52:24;98561.28;;;31.78;27.50
73338;BME280;61575;49.908;35.556;2023-07-20T13:55:28;98561.00;;;31.70;28.75
73338;BME280;61575;49.908;35.556;2023-07-20T13:58:35;98565.69;;;31.79;27.45
73338;BME280;61575;49.908;35.556;2023-07-20T14:01:38;98557.25;;;31.66;28.24
73338;BME280;61575;49.908;35.556;2023-07-20T14:04:40;98549.97;;;31.36;28.09
73338;BME280;61575;49.908;35.556;2023-07-20T14:07:43;98542.25;;;31.50;27.26
73338;BME280;61575;49.908;35.556;2023-07-20T14:10:45;98536.69;;;31.59;27.13
73338;BME280;61575;49.908;35.556;2023-07-20T14:13:50;98544.00;;;31.72;28.46
73338;BME280;61575;49.908;35.556;2023-07-20T14:16:52;98543.53;;;31.99;28.26
73338;BME280;61575;49.908;35.556;2023-07-20T14:19:54;98534.50;;;31.82;28.55
73338;BME280;61575;49.908;35.556;2023-07-20T14:22:56;98543.44;;;31.87;27.78
73338;BME280;61575;49.908;35.556;2023-07-20T14:28:21;98545.97;;;31.63;27.96
73338;BME280;61575;49.908;35.556;2023-07-20T14:31:23;98538.38;;;31.34;26.77
73338;BME280;61575;49.908;35.556;2023-07-20T14:34:26;98527.75;;;31.45;27.62
73338;BME280;61575;49.908;35.556;2023-07-20T14:37:28;98534.06;;;31.62;29.47
73338;BME280;61575;49.908;35.556;2023-07-20T14:40:30;98525.06;;;31.65;28.31
73338;BME280;61575;49.908;35.556;2023-07-20T14:43:32;98523.38;;;31.82;29.15
73338;BME280;61575;49.908;35.556;2023-07-20T14:46:34;98523.38;;;31.82;29.00
73338;BME280;61575;49.908;35.556;2023-07-20T14:52:13;98519.84;;;32.02;28.98
73338;BME280;61575;49.908;35.556;2023-07-20T14:55:17;98514.38;;;32.14;28.44
73338;BME280;61575;49.908;35.556;2023-07-20T14:58:20;98521.03;;;31.92;28.60
73338;BME280;61575;49.908;35.556;2023-07-20T15:01:23;98524.25;;;31.65;29.61
73338;BME280;61575;49.908;35.556;2023-07-20T15:04:25;98520.38;;;31.49;29.17
73338;BME280;61575;49.908;35.556;2023-07-20T15:07:28;98524.13;;;31.53;28.69
73338;BME280;61575;49.908;35.556;2023-07-20T15:10:30;98523.78;;;31.54;28.98
73338;BME280;61575;49.908;35.556;2023-07-20T15:13:32;98524.09;;;31.61;29.34
73338;BME280;61575;49.908;35.556;2023-07-20T15:16:34;98515.00;;;31.52;28.21
73338;BME280;61575;49.908;35.556;2023-07-20T15:19:37;98507.34;;;31.40;28.79
73338;BME280;61575;49.908;35.556;2023-07-20T15:22:39;98519.91;;;31.47;28.69
73338;BME280;61575;49.908;35.556;2023-07-20T15:25:41;98519.44;;;31.36;28.83
73338;BME280;61575;49.908;35.556;2023-07-20T15:28:43;98516.53;;;31.32;29.37
73338;BME280;61575;49.908;35.556;2023-07-20T15:31:45;98510.19;;;31.23;29.90
73338;BME280;61575;49.908;35.556;2023-07-20T15:34:50;98507.91;;;31.25;29.43
73338;BME280;61575;49.908;35.556;2023-07-20T15:37:52;98515.06;;;31.26;29.81
73338;BME280;61575;49.908;35.556;2023-07-20T15:40:54;98509.06;;;31.16;29.96
73338;BME280;61575;49.908;35.556;2023-07-20T15:43:57;98505.50;;;30.89;30.48
73338;BME280;61575;49.908;35.556;2023-07-20T15:46:59;98509.75;;;30.69;31.13
73338;BME280;61575;49.908;35.556;2023-07-20T15:50:02;98502.69;;;30.46;31.93
73338;BME280;61575;49.908;35.556;2023-07-20T15:53:04;98506.28;;;30.29;31.97
73338;BME280;61575;49.908;35.556;2023-07-20T15:56:06;98498.75;;;30.12;32.62
73338;BME280;61575;49.908;35.556;2023-07-20T15:59:11;98500.34;;;29.96;32.56
73338;BME280;61575;49.908;35.556;2023-07-20T16:02:13;98498.84;;;29.81;32.68
73338;BME280;61575;49.908;35.556;2023-07-20T16:05:16;98492.44;;;29.64;32.44
73338;BME280;61575;49.908;35.556;2023-07-20T16:08:18;98489.06;;;29.44;32.81
73338;BME280;61575;49.908;35.556;2023-07-20T16:11:20;98480.56;;;29.32;33.22
73338;BME280;61575;49.908;35.556;2023-07-20T16:14:27;98490.25;;;29.21;34.33
73338;BME280;61575;49.908;35.556;2023-07-20T16:17:29;98483.00;;;29.03;34.62
73338;BME280;61575;49.908;35.556;2023-07-20T16:20:31;98484.31;;;28.83;34.84